• Join FlightAware (Why Join?)
  • Login
  • US Flag 
08:54AM EDT


 

Airport Tracker/Info


-or-


 

Live Flight TrackerFlight Track Log ✈ N1944E ✈ 19-Aug-2013 ✈ KSLC - KJAC

Flight Track Log - Related Links

Times and Time Zones

All times are in EDT time to prevent confusion due to time zone crossing. See the N1944E flight status page for this flight to view local times or setup timezone preferences in your user account.

Time Position Orientation Groundspeed Altitude Reporting Facility
EDT Latitude Longitude Course Direction KTS MPH feet Rate Location/Type
01:33PM 40.7669 -111.9644 272° West 134 154 4,700  Level Salt Lake Center
01:34PM 40.7678 -112.0011 272° West 139 160 5,700 780 Climbing Salt Lake Center
01:35PM 40.8022 -112.0233 334° Northwest 137 158 6,500 780 Climbing Salt Lake Center
01:36PM 40.8394 -112.0475 334° Northwest 147 169 7,300 720 Climbing Salt Lake Center
01:38PM 40.8769 -112.0633 342° North 157 181 8,000 780 Climbing Salt Lake Center
01:39PM 40.9192 -112.0489 14° North 150 173 8,900 720 Climbing Salt Lake Center
01:40PM 40.9625 -112.0375 11° North 148 170 9,700 780 Climbing Salt Lake Center
01:41PM 41.0125 -112.0233 12° North 153 176 10,700 840 Climbing Salt Lake Center
01:42PM 41.0494 -111.9953 30° Northeast 153 176 11,500 720 Climbing Salt Lake Center
01:43PM 41.0864 -111.9644 32° Northeast 155 178 12,300 720 Climbing Salt Lake Center
01:44PM 41.1239 -111.9339 32° Northeast 157 181 13,000 720 Climbing Salt Lake Center
01:45PM 41.1686 -111.9197 13° North 162 186 13,800 720 Climbing Salt Lake Center
01:46PM 41.2117 -111.8992 20° North 164 189 14,600 720 Climbing Salt Lake Center
01:47PM 41.2567 -111.8772 20° North 171 197 15,300 660 Climbing Salt Lake Center
01:48PM 41.3039 -111.8547 20° North 178 205 16,000 780 Climbing Salt Lake Center
01:49PM 41.3600 -111.8269 20° North 180 207 17,000 480 Climbing Salt Lake Center
01:50PM 41.4117 -111.7992 22° Northeast 199 229 17,000  Level Salt Lake Center
01:51PM 41.4678 -111.7722 20° North 212 244 17,000  Level Salt Lake Center
01:52PM 41.5214 -111.7481 19° North 203 234 17,000  Level Salt Lake Center
01:53PM 41.5761 -111.7217 20° North 208 239 17,000  Level Salt Lake Center
01:54PM 41.6297 -111.6953 20° North 207 238 17,000  Level Salt Lake Center
01:55PM 41.6950 -111.6644 19° North 207 238 17,000  Level Salt Lake Center
01:56PM 41.7517 -111.6372 20° North 214 246 17,000  Level Salt Lake Center
01:57PM 41.8067 -111.6108 20° North 211 243 17,000  Level Salt Lake Center
01:58PM 41.8619 -111.5847 19° North 210 242 17,000  Level Salt Lake Center
01:59PM 41.9158 -111.5600 19° North 207 238 17,000  Level Salt Lake Center
02:00PM 41.9719 -111.5344 19° North 210 242 17,000  Level Salt Lake Center
02:01PM 42.0381 -111.5050 18° North 209 241 17,000  Level Salt Lake Center
02:02PM 42.0917 -111.4772 21° North 208 239 17,000  Level Salt Lake Center
02:04PM 42.1450 -111.4511 20° North 204 235 17,000  Level Salt Lake Center
02:05PM 42.2011 -111.4247 19° North 212 244 17,000  Level Salt Lake Center
02:06PM 42.2550 -111.3989 20° North 206 237 17,000  Level Salt Lake Center
02:07PM 42.3092 -111.3717 20° North 207 238 17,000  Level Salt Lake Center
02:08PM 42.3764 -111.3406 19° North 212 244 17,000  Level Salt Lake Center
02:09PM 42.4314 -111.3122 21° North 213 245 17,000 -60 Level Salt Lake Center
02:10PM 42.4856 -111.2833 21° North 210 242 16,900 -60 Descending Salt Lake Center
02:11PM 42.5394 -111.2564 20° North 205 236 16,900  Level Salt Lake Center
02:12PM 42.5919 -111.2331 18° North 201 231 16,900  Level Salt Lake Center
02:13PM 42.6453 -111.2064 20° North 204 235 16,900  Level Salt Lake Center
02:14PM 42.7083 -111.1794 17° North 198 228 16,900  Level Salt Lake Center
02:15PM 42.7547 -111.1564 20° North 199 229 16,900  Level Salt Lake Center
02:16PM 42.8172 -111.1250 20° North 199 229 16,900  Level Salt Lake Center
02:17PM 42.8714 -111.1000 19° North 206 237 16,900  Level Salt Lake Center
02:18PM 42.9250 -111.0714 21° North 206 237 16,900 -360 Level Salt Lake Center
02:19PM 42.9828 -111.0431 20° North 218 251 16,200 -660 Descending Salt Lake Center
02:20PM 43.0425 -111.0111 21° North 229 264 15,600 -900 Descending Salt Lake Center
02:21PM 43.1044 -110.9783 21° North 237 273 14,400 -780 Descending Salt Lake Center
02:22PM 43.1750 -110.9414 21° North 222 255 14,000 -240 Descending Salt Lake Center
02:23PM 43.2261 -110.9278 11° North 192 221 14,000  Level Salt Lake Center
02:24PM 43.2714 -110.9061 19° North 177 204 14,000  Level Salt Lake Center